createdAt,value
2018-09-22T00:00:06.235Z,70.67
2018-09-22T00:01:06.110Z,68.76
2018-09-22T00:02:05.989Z,71.52
2018-09-22T00:03:05.864Z,70.86
2018-09-22T00:04:05.740Z,68.76
2018-09-22T00:05:05.617Z,61.13
2018-09-22T00:06:05.494Z,64.94
2018-09-22T00:07:05.369Z,60.84
2018-09-22T00:08:05.244Z,62.18
2018-09-22T00:09:05.120Z,70.19
2018-09-22T00:10:04.999Z,71.52
2018-09-22T00:11:04.872Z,68.47
2018-09-22T00:12:04.748Z,67.52
2018-09-22T00:13:04.627Z,73.05
2018-09-22T00:14:04.522Z,72.28
2018-09-22T00:15:04.376Z,70.95
2018-09-22T00:16:04.253Z,74.29
2018-09-22T00:17:04.131Z,75.53
2018-09-22T00:18:04.006Z,75.53
2018-09-22T00:19:03.883Z,71.72
2018-09-22T00:20:03.760Z,68.18
2018-09-22T00:21:03.635Z,69.43
2018-09-22T00:22:03.512Z,72.48
2018-09-22T00:23:03.387Z,75.81
2018-09-22T00:24:03.264Z,80.39
2018-09-22T00:25:03.140Z,85.64
2018-09-22T00:26:03.017Z,85.64
2018-09-22T00:27:02.892Z,77.15
2018-09-22T00:28:02.765Z,86.11
2018-09-22T00:29:02.645Z,82.40
2018-09-22T00:30:02.525Z,95.27
2018-09-22T00:31:02.395Z,99.41
2018-09-22T00:32:02.275Z,94.56
2018-09-22T00:33:02.147Z,89.31
2018-09-22T00:34:02.022Z,92.84
2018-09-22T00:35:01.898Z,95.12
2018-09-22T00:36:01.776Z,95.70
2018-09-22T00:37:01.650Z,91.88
2018-09-22T00:38:01.527Z,90.74
2018-09-22T00:39:01.402Z,87.79
2018-09-22T00:40:01.278Z,93.60
2018-09-22T00:41:01.156Z,99.37
2018-09-22T00:42:01.031Z,94.79
2018-09-22T00:43:00.906Z,83.74
2018-09-22T00:44:00.783Z,86.41
2018-09-22T00:45:00.659Z,81.65
2018-09-22T00:46:00.531Z,88.45
2018-09-22T00:47:00.406Z,90.17
2018-09-22T00:48:00.283Z,90.26
2018-09-22T00:49:00.161Z,93.60
2018-09-22T00:50:00.037Z,91.50
2018-09-22T00:50:59.911Z,93.22
2018-09-22T00:51:59.790Z,93.88
2018-09-22T00:52:59.663Z,99.99
2018-09-22T00:53:59.539Z,99.99
2018-09-22T00:54:59.415Z,99.99
2018-09-22T00:55:59.295Z,96.46
2018-09-22T00:56:59.164Z,99.99
2018-09-22T00:57:59.048Z,99.99
2018-09-22T00:58:58.917Z,99.99
2018-09-22T00:59:58.793Z,99.99
2018-09-22T01:00:58.669Z,99.99
2018-09-22T01:01:58.545Z,99.99
2018-09-22T01:02:58.418Z,97.84
2018-09-22T01:03:58.296Z,90.12
2018-09-22T01:04:58.171Z,86.51
2018-09-22T01:05:58.046Z,90.12
2018-09-22T01:06:57.923Z,88.41
2018-09-22T01:07:57.806Z,92.69
2018-09-22T01:08:57.675Z,88.89
2018-09-22T01:09:57.550Z,84.31
2018-09-22T01:10:57.422Z,90.31
2018-09-22T01:11:57.301Z,90.03
2018-09-22T01:12:57.175Z,89.13
2018-09-22T01:13:57.050Z,85.60
2018-09-22T01:14:56.928Z,82.98
2018-09-22T01:15:56.856Z,80.18
2018-09-22T01:16:56.676Z,80.08
2018-09-22T01:17:56.551Z,79.13
2018-09-22T01:18:56.427Z,79.99
2018-09-22T01:19:56.303Z,81.51
2018-09-22T01:20:56.176Z,79.93
2018-09-22T01:21:56.052Z,79.36
2018-09-22T01:22:55.933Z,89.61
2018-09-22T01:23:55.804Z,90.17
2018-09-22T01:24:55.681Z,87.03
2018-09-22T01:25:55.551Z,81.32
2018-09-22T01:26:55.428Z,84.56
2018-09-22T01:27:55.301Z,81.89
2018-09-22T01:28:55.179Z,79.60
2018-09-22T01:29:55.054Z,81.32
2018-09-22T01:30:54.929Z,79.22
2018-09-22T01:31:54.804Z,79.41
2018-09-22T01:32:54.682Z,86.69
2018-09-22T01:33:54.556Z,86.12
2018-09-22T01:34:54.430Z,92.27
2018-09-22T01:35:54.305Z,89.55
2018-09-22T01:36:54.182Z,90.12
2018-09-22T01:37:54.059Z,88.12
2018-09-22T01:38:53.933Z,89.36
2018-09-22T01:39:53.806Z,88.79
2018-09-22T01:40:53.684Z,88.03
2018-09-22T01:41:53.557Z,88.03
2018-09-22T01:42:53.433Z,85.27
2018-09-22T01:43:53.309Z,84.31
2018-09-22T01:44:53.181Z,86.08
2018-09-22T01:45:53.057Z,86.75
2018-09-22T01:46:52.935Z,82.93
2018-09-22T01:47:52.808Z,78.46
2018-09-22T01:48:52.684Z,85.51
2018-09-22T01:49:52.559Z,86.18
2018-09-22T01:50:52.433Z,93.41
2018-09-22T01:51:52.312Z,90.75
2018-09-22T01:52:52.188Z,88.37
2018-09-22T01:53:52.061Z,91.70
2018-09-22T01:54:51.934Z,89.70
2018-09-22T01:55:51.815Z,94.37
2018-09-22T01:56:51.686Z,93.51
2018-09-22T01:57:51.560Z,91.70
2018-09-22T01:58:51.434Z,88.93
2018-09-22T01:59:51.309Z,87.60
2018-09-22T02:00:51.186Z,84.94
2018-09-22T02:01:51.062Z,85.13
2018-09-22T02:02:50.936Z,90.36
2018-09-22T02:03:50.812Z,89.51
2018-09-22T02:04:50.689Z,92.27
2018-09-22T02:05:50.561Z,91.79
2018-09-22T02:06:50.437Z,95.65
2018-09-22T02:07:50.310Z,93.18
2018-09-22T02:08:50.187Z,92.51
2018-09-22T02:09:50.062Z,92.41
2018-09-22T02:10:49.938Z,81.28
2018-09-22T02:11:49.811Z,75.47
2018-09-22T02:12:49.686Z,77.76
2018-09-22T02:13:49.562Z,89.75
2018-09-22T02:14:49.436Z,84.13
2018-09-22T02:15:49.311Z,84.99
2018-09-22T02:16:49.184Z,81.95
2018-09-22T02:17:49.063Z,79.57
2018-09-22T02:18:48.936Z,77.95
2018-09-22T02:19:48.809Z,79.85
2018-09-22T02:20:48.685Z,84.80
2018-09-22T02:21:48.560Z,80.13
2018-09-22T02:22:48.436Z,80.52
2018-09-22T02:23:48.312Z,79.57
2018-09-22T02:24:48.192Z,75.95
2018-09-22T02:25:48.063Z,79.57
2018-09-22T02:26:47.932Z,85.28
2018-09-22T02:27:47.809Z,88.32
2018-09-22T02:28:47.682Z,95.65
2018-09-22T02:29:47.558Z,92.75
2018-09-22T02:30:47.436Z,89.42
2018-09-22T02:31:47.307Z,90.18
2018-09-22T02:32:47.187Z,88.75
2018-09-22T02:33:47.055Z,85.04
2018-09-22T02:34:46.934Z,80.95
2018-09-22T02:35:46.809Z,79.33
2018-09-22T02:36:46.679Z,75.91
2018-09-22T02:37:46.560Z,74.10
2018-09-22T02:38:46.430Z,74.67
2018-09-22T02:39:46.300Z,73.53
2018-09-22T02:40:46.177Z,75.62
2018-09-22T02:41:46.052Z,75.81
2018-09-22T02:42:45.926Z,76.01
2018-09-22T02:43:45.808Z,77.34
2018-09-22T02:44:45.675Z,80.86
2018-09-22T02:45:45.548Z,74.29
2018-09-22T02:46:45.423Z,72.96
2018-09-22T02:47:45.297Z,71.15
2018-09-22T02:48:45.172Z,72.58
2018-09-22T02:49:45.046Z,74.29
2018-09-22T02:50:44.920Z,74.20
2018-09-22T02:51:44.797Z,73.72
2018-09-22T02:52:44.669Z,75.53
2018-09-22T02:53:44.546Z,74.67
2018-09-22T02:54:44.417Z,72.39
2018-09-22T02:55:44.293Z,75.34
2018-09-22T02:56:44.165Z,77.62
2018-09-22T02:57:44.042Z,74.67
2018-09-22T02:58:43.914Z,71.63
2018-09-22T02:59:43.790Z,71.53
2018-09-22T03:00:43.662Z,71.25
2018-09-22T03:01:43.536Z,71.72
2018-09-22T03:02:43.409Z,69.63
2018-09-22T03:03:43.285Z,69.06
2018-09-22T03:04:43.164Z,70.20
2018-09-22T03:05:43.051Z,72.11
2018-09-22T03:06:42.921Z,73.06
2018-09-22T03:07:42.781Z,72.30
2018-09-22T03:08:42.700Z,69.73
2018-09-22T03:09:42.531Z,69.35
2018-09-22T03:10:42.406Z,69.82
2018-09-22T03:11:42.278Z,69.44
2018-09-22T03:12:42.155Z,70.74
2018-09-22T03:13:42.025Z,71.78
2018-09-22T03:14:41.946Z,72.96
2018-09-22T03:15:41.773Z,75.68
2018-09-22T03:16:41.651Z,76.73
2018-09-22T03:17:41.529Z,71.50
2018-09-22T03:18:41.397Z,68.36
2018-09-22T03:19:41.271Z,66.46
2018-09-22T03:20:41.144Z,66.36
2018-09-22T03:21:41.019Z,65.80
2018-09-22T03:22:40.892Z,64.56
2018-09-22T03:23:40.768Z,61.99
2018-09-22T03:24:40.642Z,63.51
2018-09-22T03:25:40.515Z,63.70
2018-09-22T03:26:40.388Z,63.23
2018-09-22T03:27:40.261Z,62.37
2018-09-22T03:28:40.135Z,62.27
2018-09-22T03:29:40.010Z,61.04
2018-09-22T03:30:39.881Z,61.04
2018-09-22T03:31:39.756Z,60.66
2018-09-22T03:32:39.628Z,59.52
2018-09-22T03:33:39.503Z,58.18
2018-09-22T03:34:39.375Z,57.62
2018-09-22T03:35:39.249Z,58.00
2018-09-22T03:36:39.123Z,59.14
2018-09-22T03:37:38.999Z,58.28
2018-09-22T03:38:38.870Z,60.18
2018-09-22T03:39:38.744Z,64.08
2018-09-22T03:40:38.618Z,64.46
2018-09-22T03:41:38.491Z,62.37
2018-09-22T03:42:38.365Z,61.20
2018-09-22T03:43:38.241Z,62.05
2018-09-22T03:44:38.114Z,61.20
2018-09-22T03:45:37.988Z,59.58
2018-09-22T03:46:37.859Z,56.63
2018-09-22T03:47:37.737Z,55.40
2018-09-22T03:48:37.606Z,54.74
2018-09-22T03:49:37.486Z,54.57
2018-09-22T03:50:37.356Z,54.10
2018-09-22T03:51:37.233Z,53.63
2018-09-22T03:52:37.102Z,55.33
2018-09-22T03:53:36.977Z,54.67
2018-09-22T03:54:36.853Z,55.90
2018-09-22T03:55:36.727Z,57.04
2018-09-22T03:56:36.597Z,58.37
2018-09-22T03:57:36.471Z,60.72
2018-09-22T03:58:36.344Z,62.91
2018-09-22T03:59:36.220Z,68.99
2018-09-22T04:00:36.091Z,67.09
2018-09-22T04:01:35.968Z,63.20
2018-09-22T04:02:35.839Z,61.20
2018-09-22T04:03:35.711Z,60.44
2018-09-22T04:04:35.584Z,59.27
2018-09-22T04:05:35.458Z,58.51
2018-09-22T04:06:35.334Z,57.59
2018-09-22T04:07:35.205Z,56.35
2018-09-22T04:08:35.078Z,56.35
2018-09-22T04:09:34.952Z,55.69
2018-09-22T04:10:34.827Z,55.40
2018-09-22T04:11:34.700Z,57.40
2018-09-22T04:12:34.574Z,57.21
2018-09-22T04:13:34.447Z,56.35
2018-09-22T04:14:34.318Z,56.63
2018-09-22T04:15:34.190Z,57.78
2018-09-22T04:16:34.063Z,58.25
2018-09-22T04:17:33.939Z,58.73
2018-09-22T04:18:33.809Z,58.16
2018-09-22T04:19:33.686Z,59.39
2018-09-22T04:20:33.556Z,61.07
2018-09-22T04:21:33.429Z,61.17
2018-09-22T04:22:33.304Z,59.96
2018-09-22T04:23:33.174Z,58.35
2018-09-22T04:24:33.049Z,59.01
2018-09-22T04:25:32.923Z,58.44
2018-09-22T04:26:32.795Z,59.58
2018-09-22T04:27:32.668Z,59.96
2018-09-22T04:28:32.542Z,60.72
2018-09-22T04:29:32.415Z,61.68
2018-09-22T04:30:32.300Z,61.20
2018-09-22T04:31:32.160Z,60.72
2018-09-22T04:32:32.034Z,60.53
2018-09-22T04:33:31.920Z,61.29
2018-09-22T04:34:31.782Z,62.53
2018-09-22T04:35:31.658Z,63.57
2018-09-22T04:36:31.526Z,64.62
2018-09-22T04:37:31.398Z,64.78
2018-09-22T04:38:31.274Z,63.83
2018-09-22T04:39:31.152Z,62.97
2018-09-22T04:40:31.019Z,63.07
2018-09-22T04:41:30.893Z,61.01
2018-09-22T04:42:30.771Z,60.88
2018-09-22T04:43:30.637Z,61.29
2018-09-22T04:44:30.512Z,61.77
2018-09-22T04:45:30.387Z,60.72
2018-09-22T04:46:30.257Z,62.43
2018-09-22T04:47:30.131Z,65.19
2018-09-22T04:48:30.006Z,70.13
2018-09-22T04:49:29.878Z,72.60
2018-09-22T04:50:29.751Z,73.08
2018-09-22T04:51:29.624Z,72.70
2018-09-22T04:52:29.501Z,73.36
2018-09-22T04:53:29.403Z,70.13
2018-09-22T04:54:29.276Z,69.56
2018-09-22T04:55:29.318Z,68.04
2018-09-22T04:56:28.994Z,67.09
2018-09-22T04:57:28.866Z,67.19
2018-09-22T04:58:28.735Z,69.15
2018-09-22T04:59:28.610Z,69.05
2018-09-22T05:00:28.485Z,68.10
2018-09-22T05:01:28.357Z,67.72
2018-09-22T05:02:28.230Z,65.25
2018-09-22T05:03:28.103Z,63.83
2018-09-22T05:04:27.976Z,62.12
2018-09-22T05:05:27.849Z,61.93
2018-09-22T05:06:27.721Z,60.60
2018-09-22T05:07:27.593Z,61.17
2018-09-22T05:08:27.465Z,60.79
2018-09-22T05:09:27.345Z,60.50
2018-09-22T05:10:27.212Z,60.41
2018-09-22T05:11:27.136Z,60.60
2018-09-22T05:12:26.958Z,61.26
2018-09-22T05:13:26.832Z,61.93
2018-09-22T05:14:26.702Z,62.97
2018-09-22T05:15:26.582Z,62.31
2018-09-22T05:16:26.452Z,61.83
2018-09-22T05:17:26.345Z,61.65
2018-09-22T05:18:26.194Z,61.26
2018-09-22T05:19:26.066Z,62.02
2018-09-22T05:20:25.982Z,62.69
2018-09-22T05:21:25.815Z,62.40
2018-09-22T05:22:25.685Z,61.93
2018-09-22T05:23:25.558Z,62.40
2018-09-22T05:24:25.443Z,61.55
2018-09-22T05:25:25.306Z,61.36
2018-09-22T05:26:25.176Z,60.88
2018-09-22T05:27:25.144Z,63.92
2018-09-22T05:28:24.923Z,64.46
2018-09-22T05:29:24.797Z,62.66
2018-09-22T05:30:24.666Z,62.94
2018-09-22T05:31:24.631Z,62.66
2018-09-22T05:32:24.551Z,61.71
2018-09-22T05:33:24.290Z,61.04
2018-09-22T05:34:24.157Z,60.03
2018-09-22T05:35:24.038Z,59.17
2018-09-22T05:36:23.906Z,59.46
2018-09-22T05:37:23.777Z,59.55
2018-09-22T05:38:23.649Z,60.60
2018-09-22T05:39:23.528Z,60.88
2018-09-22T05:40:23.415Z,62.12
2018-09-22T05:41:23.266Z,63.45
2018-09-22T05:42:23.142Z,64.49
2018-09-22T05:43:23.055Z,64.59
2018-09-22T05:44:22.899Z,64.69
2018-09-22T05:45:22.757Z,63.45
2018-09-22T05:46:22.630Z,63.07
2018-09-22T05:47:22.505Z,63.04
2018-09-22T05:48:22.551Z,62.31
2018-09-22T05:49:22.256Z,62.08
2018-09-22T05:50:22.404Z,61.45
2018-09-22T05:51:21.994Z,60.88
2018-09-22T05:52:22.202Z,61.17
2018-09-22T05:53:21.742Z,61.83
2018-09-22T05:54:21.610Z,60.98
2018-09-22T05:55:21.484Z,60.98
2018-09-22T05:56:21.356Z,61.26
2018-09-22T05:57:21.230Z,61.83
2018-09-22T05:58:21.101Z,62.59
2018-09-22T05:59:20.980Z,63.64
2018-09-22T06:00:20.849Z,64.11
2018-09-22T06:01:20.721Z,64.87
2018-09-22T06:02:20.592Z,65.06
2018-09-22T06:03:20.483Z,67.25
2018-09-22T06:04:20.336Z,70.38
2018-09-22T06:05:20.210Z,69.91
2018-09-22T06:06:20.081Z,70.29
2018-09-22T06:07:19.955Z,69.62
2018-09-22T06:08:19.827Z,68.67
2018-09-22T06:09:19.699Z,67.44
2018-09-22T06:10:19.573Z,68.58
2018-09-22T06:11:19.446Z,69.71
2018-09-22T06:12:19.318Z,68.29
2018-09-22T06:13:19.190Z,68.29
2018-09-22T06:14:19.069Z,71.43
2018-09-22T06:15:18.936Z,71.52
2018-09-22T06:16:18.809Z,72.47
2018-09-22T06:17:18.682Z,73.80
2018-09-22T06:18:18.558Z,73.04
2018-09-22T06:19:18.426Z,73.23
2018-09-22T06:20:18.299Z,74.37
2018-09-22T06:21:18.181Z,74.37
2018-09-22T06:22:18.046Z,74.18
2018-09-22T06:23:17.968Z,73.14
2018-09-22T06:24:17.804Z,72.38
2018-09-22T06:25:17.669Z,72.09
2018-09-22T06:26:17.535Z,77.12
2018-09-22T06:27:17.407Z,78.64
2018-09-22T06:28:17.282Z,85.20
2018-09-22T06:29:17.155Z,82.07
2018-09-22T06:30:17.028Z,78.74
2018-09-22T06:31:16.957Z,76.37
2018-09-22T06:32:16.773Z,72.56
2018-09-22T06:33:16.645Z,74.24
2018-09-22T06:34:16.518Z,72.28
2018-09-22T06:35:16.389Z,70.06
2018-09-22T06:36:16.264Z,67.53
2018-09-22T06:37:16.164Z,67.44
2018-09-22T06:38:16.008Z,67.34
2018-09-22T06:39:15.881Z,70.95
2018-09-22T06:40:15.754Z,76.56
2018-09-22T06:41:15.632Z,75.79
2018-09-22T06:42:15.500Z,74.18
2018-09-22T06:43:15.376Z,75.51
2018-09-22T06:44:15.299Z,76.93
2018-09-22T06:45:15.137Z,79.41
2018-09-22T06:46:15.047Z,83.11
2018-09-22T06:47:14.862Z,84.34
2018-09-22T06:48:14.737Z,86.72
2018-09-22T06:49:14.609Z,87.29
2018-09-22T06:50:14.487Z,84.72
2018-09-22T06:51:14.353Z,83.49
2018-09-22T06:52:14.226Z,84.34
2018-09-22T06:53:14.101Z,84.44
2018-09-22T06:54:13.972Z,85.01
2018-09-22T06:55:13.845Z,83.78
2018-09-22T06:56:13.719Z,81.68
2018-09-22T06:57:13.593Z,81.78
2018-09-22T06:58:13.462Z,83.30
2018-09-22T06:59:13.335Z,83.97
2018-09-22T07:00:13.212Z,80.74
2018-09-22T07:01:13.084Z,77.79
2018-09-22T07:02:12.955Z,74.18
2018-09-22T07:03:12.828Z,73.42
2018-09-22T07:04:12.701Z,75.99
2018-09-22T07:05:12.574Z,79.03
2018-09-22T07:06:12.447Z,81.02
2018-09-22T07:07:12.326Z,80.16
2018-09-22T07:08:12.194Z,79.79
2018-09-22T07:09:12.065Z,77.60
2018-09-22T07:10:11.937Z,75.42
2018-09-22T07:11:11.811Z,75.42
2018-09-22T07:12:11.681Z,73.90
2018-09-22T07:13:11.556Z,71.43
2018-09-22T07:14:11.427Z,69.81
2018-09-22T07:15:11.300Z,69.24
2018-09-22T07:16:11.173Z,69.53
2018-09-22T07:17:11.047Z,69.53
2018-09-22T07:18:10.918Z,69.43
2018-09-22T07:19:10.794Z,68.86
2018-09-22T07:20:10.663Z,69.43
2018-09-22T07:21:10.536Z,74.27
2018-09-22T07:22:10.408Z,75.42
2018-09-22T07:23:10.288Z,77.41
2018-09-22T07:24:10.154Z,76.27
2018-09-22T07:25:10.026Z,74.66
2018-09-22T07:26:09.898Z,76.27
2018-09-22T07:27:09.771Z,74.18
2018-09-22T07:28:09.645Z,73.99
2018-09-22T07:29:09.517Z,79.88
2018-09-22T07:30:09.390Z,80.16
2018-09-22T07:31:09.268Z,78.55
2018-09-22T07:32:09.139Z,82.16
2018-09-22T07:33:09.009Z,82.35
2018-09-22T07:34:08.895Z,83.97
2018-09-22T07:35:08.755Z,85.11
2018-09-22T07:36:08.627Z,84.53
2018-09-22T07:37:08.499Z,82.54
2018-09-22T07:38:08.391Z,82.45
2018-09-22T07:39:08.243Z,82.73
2018-09-22T07:40:08.118Z,82.54
2018-09-22T07:41:07.994Z,79.88
2018-09-22T07:42:07.864Z,78.93
2018-09-22T07:43:07.741Z,78.69
2018-09-22T07:44:07.610Z,77.45
2018-09-22T07:45:07.485Z,74.98
2018-09-22T07:46:07.355Z,75.55
2018-09-22T07:47:07.229Z,76.03
2018-09-22T07:48:07.103Z,85.72
2018-09-22T07:49:06.972Z,82.68
2018-09-22T07:50:06.848Z,81.44
2018-09-22T07:51:06.720Z,81.06
2018-09-22T07:52:06.594Z,79.83
2018-09-22T07:53:06.465Z,78.78
2018-09-22T07:54:06.340Z,80.58
2018-09-22T07:55:06.212Z,80.30
2018-09-22T07:56:06.086Z,77.73
2018-09-22T07:57:06.014Z,76.97
2018-09-22T07:58:05.833Z,74.98
2018-09-22T07:59:05.706Z,75.17
2018-09-22T08:00:05.579Z,77.45
2018-09-22T08:01:05.452Z,76.69
2018-09-22T08:02:05.323Z,78.21
2018-09-22T08:03:05.199Z,77.64
2018-09-22T08:04:05.070Z,74.22
2018-09-22T08:05:04.945Z,75.99
2018-09-22T08:06:04.819Z,76.37
2018-09-22T08:07:04.693Z,73.46
2018-09-22T08:08:04.568Z,72.13
2018-09-22T08:09:04.435Z,72.32
2018-09-22T08:10:04.310Z,71.94
2018-09-22T08:11:04.182Z,75.55
2018-09-22T08:12:04.057Z,71.56
2018-09-22T08:13:03.931Z,73.08
2018-09-22T08:14:03.802Z,75.26
2018-09-22T08:15:03.677Z,78.55
2018-09-22T08:16:03.548Z,74.56
2018-09-22T08:17:03.421Z,68.23
2018-09-22T08:18:03.296Z,66.52
2018-09-22T08:19:03.171Z,68.42
2018-09-22T08:20:03.042Z,67.85
2018-09-22T08:21:02.916Z,66.71
2018-09-22T08:22:02.788Z,67.38
2018-09-22T08:23:02.662Z,67.94
2018-09-22T08:24:02.536Z,70.99
2018-09-22T08:25:02.411Z,76.78
2018-09-22T08:26:02.282Z,72.79
2018-09-22T08:27:02.161Z,74.69
2018-09-22T08:28:02.029Z,85.91
2018-09-22T08:29:01.901Z,85.15
2018-09-22T08:30:01.777Z,90.19
2018-09-22T08:31:01.650Z,89.95
2018-09-22T08:32:01.570Z,87.10
2018-09-22T08:33:01.397Z,77.45
2018-09-22T08:34:01.270Z,75.26
2018-09-22T08:35:01.143Z,79.44
2018-09-22T08:36:01.132Z,79.54
2018-09-22T08:37:01.145Z,81.82
2018-09-22T08:38:00.763Z,82.68
2018-09-22T08:39:00.646Z,81.44
2018-09-22T08:40:00.509Z,82.20
2018-09-22T08:41:00.392Z,91.89
2018-09-22T08:42:00.270Z,92.80
2018-09-22T08:43:00.134Z,97.55
2018-09-22T08:44:00.080Z,99.99
2018-09-22T08:44:59.887Z,99.26
2018-09-22T08:45:59.758Z,99.16
2018-09-22T08:46:59.622Z,95.46
2018-09-22T08:47:59.500Z,98.31
2018-09-22T08:48:59.372Z,99.99
2018-09-22T08:49:59.291Z,99.99
2018-09-22T08:50:59.124Z,99.99
2018-09-22T08:51:58.993Z,99.99
2018-09-22T08:52:58.869Z,99.99
2018-09-22T08:53:58.738Z,99.99
2018-09-22T08:54:58.614Z,99.99
2018-09-22T08:55:58.496Z,99.99
2018-09-22T08:56:58.358Z,99.99
2018-09-22T08:57:58.321Z,99.99
2018-09-22T08:58:58.110Z,99.99
2018-09-22T08:59:57.980Z,99.99
2018-09-22T09:00:57.855Z,99.99
2018-09-22T09:01:57.729Z,99.99
2018-09-22T09:02:57.599Z,99.99
2018-09-22T09:03:57.476Z,99.99
2018-09-22T09:04:57.372Z,99.99
2018-09-22T09:05:57.233Z,99.99
2018-09-22T09:06:57.097Z,99.99
2018-09-22T09:07:56.970Z,99.99
2018-09-22T09:08:56.845Z,99.99
2018-09-22T09:09:56.718Z,99.99
2018-09-22T09:10:56.597Z,99.99
2018-09-22T09:11:56.471Z,99.99
2018-09-22T09:12:56.341Z,99.99
2018-09-22T09:13:56.217Z,99.99
2018-09-22T09:14:56.091Z,99.99
2018-09-22T09:15:55.964Z,99.99
2018-09-22T09:16:55.871Z,99.99
2018-09-22T09:17:55.737Z,99.99
2018-09-22T09:18:55.585Z,99.99
2018-09-22T09:19:55.459Z,99.99
2018-09-22T09:20:55.354Z,99.99
2018-09-22T09:21:55.211Z,99.99
2018-09-22T09:22:55.085Z,99.99
2018-09-22T09:23:54.960Z,99.99
2018-09-22T09:24:54.832Z,99.99
2018-09-22T09:25:54.709Z,99.99
2018-09-22T09:26:54.755Z,99.99
2018-09-22T09:27:54.457Z,99.99
2018-09-22T09:28:54.334Z,99.99
2018-09-22T09:29:54.380Z,99.99
2018-09-22T09:30:54.081Z,99.99
2018-09-22T09:31:53.956Z,99.99
2018-09-22T09:32:53.831Z,99.99
2018-09-22T09:33:53.710Z,99.99
2018-09-22T09:34:53.582Z,99.99
2018-09-22T09:35:53.461Z,99.99
2018-09-22T09:36:53.329Z,99.99
2018-09-22T09:37:53.315Z,99.99
2018-09-22T09:38:53.082Z,99.99
2018-09-22T09:39:52.954Z,99.99
2018-09-22T09:40:52.830Z,99.99
2018-09-22T09:41:52.706Z,99.99
2018-09-22T09:42:52.582Z,99.99
2018-09-22T09:43:52.455Z,99.99
2018-09-22T09:44:52.331Z,99.99
2018-09-22T09:45:52.230Z,99.99
2018-09-22T09:46:52.080Z,99.99
2018-09-22T09:47:51.961Z,99.99
2018-09-22T09:48:51.831Z,99.99
2018-09-22T09:49:51.710Z,99.99
2018-09-22T09:50:51.580Z,99.99
2018-09-22T09:51:51.455Z,99.99
2018-09-22T09:52:51.330Z,99.99
2018-09-22T09:53:51.205Z,99.99
2018-09-22T09:54:51.142Z,99.99
2018-09-22T09:55:50.956Z,99.99
2018-09-22T09:56:50.901Z,99.99
2018-09-22T09:57:50.708Z,99.99
2018-09-22T09:58:50.583Z,99.99
2018-09-22T09:59:50.545Z,99.99
2018-09-22T10:00:50.332Z,99.99
2018-09-22T10:01:50.208Z,99.99
2018-09-22T10:02:50.086Z,99.99
2018-09-22T10:03:49.958Z,99.99
2018-09-22T10:04:49.838Z,99.99
2018-09-22T10:05:49.710Z,99.99
2018-09-22T10:06:49.628Z,99.99
2018-09-22T10:07:49.470Z,99.99
2018-09-22T10:08:49.342Z,99.99
2018-09-22T10:09:49.212Z,99.99
2018-09-22T10:10:49.093Z,99.99
2018-09-22T10:11:49.009Z,99.99
2018-09-22T10:12:48.839Z,99.99
2018-09-22T10:13:48.715Z,99.99
2018-09-22T10:14:48.602Z,99.99
2018-09-22T10:15:48.466Z,99.99
2018-09-22T10:16:48.346Z,99.99
2018-09-22T10:17:48.220Z,99.99
2018-09-22T10:18:48.096Z,99.99
2018-09-22T10:19:47.973Z,99.99
2018-09-22T10:20:47.849Z,99.99
2018-09-22T10:21:47.724Z,99.99
2018-09-22T10:22:47.599Z,99.99
2018-09-22T10:23:47.478Z,99.99
2018-09-22T10:24:47.350Z,99.99
2018-09-22T10:25:47.234Z,99.99
2018-09-22T10:26:47.103Z,99.99
2018-09-22T10:27:46.979Z,99.99
2018-09-22T10:28:46.875Z,99.99
2018-09-22T10:29:46.732Z,99.99
2018-09-22T10:30:46.607Z,99.99
2018-09-22T10:31:46.481Z,99.99
2018-09-22T10:32:46.361Z,99.99
2018-09-22T10:33:46.237Z,99.99
2018-09-22T10:34:46.111Z,99.99
2018-09-22T10:35:45.987Z,99.99
2018-09-22T10:36:45.861Z,99.99
2018-09-22T10:37:45.739Z,99.99
2018-09-22T10:38:45.615Z,99.99
2018-09-22T10:39:45.499Z,99.99
2018-09-22T10:40:45.368Z,99.99
2018-09-22T10:41:45.249Z,99.99
2018-09-22T10:42:45.126Z,99.99
2018-09-22T10:43:44.997Z,99.99
2018-09-22T10:44:44.916Z,99.99
2018-09-22T10:45:44.809Z,99.99
2018-09-22T10:46:44.624Z,99.99
2018-09-22T10:47:44.538Z,99.99
2018-09-22T10:48:44.378Z,99.99
2018-09-22T10:49:44.254Z,99.99
2018-09-22T10:50:44.132Z,99.99
2018-09-22T10:51:44.008Z,99.99
2018-09-22T10:52:43.956Z,99.99
2018-09-22T10:53:43.761Z,99.99
2018-09-22T10:54:43.651Z,99.99
2018-09-22T10:55:43.513Z,99.99
2018-09-22T10:56:43.434Z,99.99
2018-09-22T10:57:43.335Z,99.99
2018-09-22T10:58:43.145Z,99.99
2018-09-22T10:59:43.022Z,99.99
2018-09-22T11:00:42.897Z,99.99
2018-09-22T11:01:42.774Z,99.99
2018-09-22T11:02:42.673Z,99.99
2018-09-22T11:03:42.530Z,99.99
2018-09-22T11:04:42.443Z,99.99
2018-09-22T11:05:42.283Z,99.99
2018-09-22T11:06:42.163Z,99.99
2018-09-22T11:07:42.169Z,99.99
2018-09-22T11:08:41.919Z,99.99
2018-09-22T11:09:41.804Z,99.99
2018-09-22T11:10:41.675Z,99.99
2018-09-22T11:11:41.761Z,99.99
2018-09-22T11:12:41.496Z,99.99
2018-09-22T11:13:41.313Z,99.99
2018-09-22T11:14:41.188Z,99.99
2018-09-22T11:15:41.068Z,99.99
2018-09-22T11:16:40.946Z,99.96
2018-09-22T11:17:40.828Z,99.99
2018-09-22T11:18:40.786Z,99.99
2018-09-22T11:19:40.584Z,99.99
2018-09-22T11:20:40.460Z,99.99
2018-09-22T11:21:40.403Z,99.19
2018-09-22T11:22:40.217Z,99.99
2018-09-22T11:23:40.098Z,98.90
2018-09-22T11:24:39.973Z,97.80
2018-09-22T11:25:39.851Z,99.81
2018-09-22T11:26:39.772Z,97.85
2018-09-22T11:27:39.637Z,99.99
2018-09-22T11:28:39.541Z,99.99
2018-09-22T11:29:39.370Z,98.28
2018-09-22T11:30:39.245Z,98.09
2018-09-22T11:31:39.170Z,98.66
2018-09-22T11:32:39.021Z,97.18
2018-09-22T11:33:38.879Z,98.81
2018-09-22T11:34:38.759Z,99.99
2018-09-22T11:35:38.637Z,99.15
2018-09-22T11:36:38.517Z,96.75
2018-09-22T11:37:38.395Z,95.12
2018-09-22T11:38:38.277Z,93.40
2018-09-22T11:39:38.154Z,93.21
2018-09-22T11:40:38.034Z,96.84
2018-09-22T11:41:37.910Z,97.23
2018-09-22T11:42:37.799Z,99.99
2018-09-22T11:43:37.671Z,95.17
2018-09-22T11:44:37.549Z,97.42
2018-09-22T11:45:37.424Z,90.19
2018-09-22T11:46:37.305Z,90.43
2018-09-22T11:47:37.183Z,91.10
2018-09-22T11:48:37.062Z,94.64
2018-09-22T11:49:36.955Z,91.49
2018-09-22T11:50:36.820Z,89.86
2018-09-22T11:51:36.699Z,88.27
2018-09-22T11:52:36.682Z,85.30
2018-09-22T11:53:36.490Z,87.88
2018-09-22T11:54:36.338Z,91.63
2018-09-22T11:55:36.216Z,89.47
2018-09-22T11:56:36.173Z,88.80
2018-09-22T11:57:35.972Z,92.54
2018-09-22T11:58:35.852Z,90.91
2018-09-22T11:59:35.734Z,92.82
2018-09-22T12:00:35.610Z,88.61
2018-09-22T12:01:35.494Z,87.55
2018-09-22T12:02:35.369Z,88.70
2018-09-22T12:03:35.251Z,88.51
2018-09-22T12:04:35.131Z,87.99
2018-09-22T12:05:35.009Z,90.86
2018-09-22T12:06:34.978Z,93.50
2018-09-22T12:07:34.767Z,94.45
2018-09-22T12:08:34.646Z,92.21
2018-09-22T12:09:34.525Z,93.35
2018-09-22T12:10:34.405Z,92.73
2018-09-22T12:11:34.285Z,89.72
2018-09-22T12:12:34.162Z,91.25
2018-09-22T12:13:34.039Z,93.16
2018-09-22T12:14:33.920Z,90.53
2018-09-22T12:15:33.807Z,89.57
2018-09-22T12:16:33.678Z,91.25
2018-09-22T12:17:33.560Z,89.43
2018-09-22T12:18:33.436Z,91.01
2018-09-22T12:19:33.316Z,93.74
2018-09-22T12:20:33.195Z,91.25
2018-09-22T12:21:33.075Z,88.03
2018-09-22T12:22:32.957Z,90.62
2018-09-22T12:23:32.835Z,90.43
2018-09-22T12:24:32.712Z,86.69
2018-09-22T12:25:32.591Z,89.86
2018-09-22T12:26:32.469Z,87.84
2018-09-22T12:27:32.356Z,89.47
2018-09-22T12:28:32.242Z,88.51
2018-09-22T12:29:32.106Z,89.86
2018-09-22T12:30:31.988Z,87.84
2018-09-22T12:31:31.865Z,90.29
2018-09-22T12:32:31.744Z,87.13
2018-09-22T12:33:31.623Z,89.23
2018-09-22T12:34:31.506Z,89.81
2018-09-22T12:35:31.384Z,92.68
2018-09-22T12:36:31.262Z,93.40
2018-09-22T12:37:31.145Z,93.21
2018-09-22T12:38:31.019Z,89.42
2018-09-22T12:39:30.904Z,87.27
2018-09-22T12:40:30.780Z,86.60
2018-09-22T12:41:30.663Z,85.88
2018-09-22T12:42:30.536Z,88.61
2018-09-22T12:43:30.415Z,91.49
2018-09-22T12:44:30.297Z,89.57
2018-09-22T12:45:30.177Z,90.62
2018-09-22T12:46:30.054Z,89.18
2018-09-22T12:47:29.934Z,88.13
2018-09-22T12:48:29.817Z,88.13
2018-09-22T12:49:29.770Z,88.61
2018-09-22T12:50:29.581Z,89.66